Time;durP1;ratioP1;P1;durP2;ratioP2;P2;SDS_P1;SDS_P2;PMS_P1;PMS_P2;Temp;Humidity;BMP_temperature;BMP_pressure;BME280_temperature;BME280_humidity;BME280_pressure;Samples;Min_cycle;Max_cycle;Signal;HPM_P1;HPM_P2
2021/07/11 00:00:16;;;;;;;8.95;3.58;;;16.30;99.90;;;;;;4915848;29;20324;-51
2021/07/11 00:02:46;;;;;;;4.25;3.38;;;16.30;99.90;;;;;;4915493;29;20294;-49
2021/07/11 00:05:16;;;;;;;5.63;3.42;;;16.30;99.90;;;;;;4915327;29;20716;-51
2021/07/11 00:07:44;;;;;;;3.75;3.10;;;16.30;99.90;;;;;;4915639;29;20208;-49
2021/07/11 00:10:13;;;;;;;4.32;3.40;;;16.30;99.90;;;;;;4915305;29;20213;-49
2021/07/11 00:12:43;;;;;;;3.58;3.10;;;16.30;99.90;;;;;;4915062;29;20312;-48
2021/07/11 00:15:14;;;;;;;5.45;2.70;;;16.20;99.90;;;;;;4915454;29;20441;-52
2021/07/11 00:17:48;;;;;;;3.00;2.30;;;16.20;99.90;;;;;;4915167;29;20263;-51
2021/07/11 00:20:17;;;;;;;3.70;2.53;;;16.20;99.90;;;;;;4915236;29;20307;-49
2021/07/11 00:22:45;;;;;;;4.65;2.90;;;16.10;99.90;;;;;;4918134;29;20216;-48
2021/07/11 00:25:14;;;;;;;2.70;2.50;;;16.10;99.90;;;;;;4918594;29;20255;-51
2021/07/11 00:27:43;;;;;;;2.63;2.42;;;16.10;99.90;;;;;;4918880;29;20219;-49
2021/07/11 00:30:13;;;;;;;3.00;2.80;;;16.10;99.90;;;;;;4918764;29;20308;-49
2021/07/11 00:32:41;;;;;;;3.30;3.00;;;16.10;99.90;;;;;;4918491;29;20373;-46
2021/07/11 00:35:11;;;;;;;4.40;2.80;;;16.10;99.90;;;;;;4918548;29;20627;-50
2021/07/11 00:37:39;;;;;;;3.50;3.13;;;16.10;99.90;;;;;;4918173;29;20862;-48
2021/07/11 00:40:10;;;;;;;4.55;3.03;;;16.10;99.90;;;;;;4918541;29;20657;-49
2021/07/11 00:42:40;;;;;;;3.22;2.72;;;16.10;99.90;;;;;;4919875;28;20469;-48
2021/07/11 00:45:10;;;;;;;4.55;3.10;;;16.10;99.90;;;;;;4918269;29;20212;-48
2021/07/11 00:47:39;;;;;;;4.97;3.90;;;16.10;99.90;;;;;;4918168;29;20258;-48
2021/07/11 00:50:09;;;;;;;3.78;3.10;;;16.10;99.90;;;;;;4918097;29;20223;-52
2021/07/11 00:52:39;;;;;;;5.53;3.42;;;16.00;99.90;;;;;;4918314;29;20291;-50
2021/07/11 00:55:08;;;;;;;3.85;3.50;;;16.00;99.90;;;;;;4918350;29;20224;-49
2021/07/11 00:57:36;;;;;;;4.13;3.20;;;16.00;99.90;;;;;;4918104;29;20223;-49
2021/07/11 01:00:06;;;;;;;3.10;2.90;;;16.00;99.90;;;;;;4918033;29;20315;-48
2021/07/11 01:02:40;;;;;;;5.70;3.70;;;16.00;99.90;;;;;;4917941;29;20208;-50
2021/07/11 01:05:10;;;;;;;3.17;2.88;;;16.00;99.90;;;;;;4918204;29;20248;-50
2021/07/11 01:07:46;;;;;;;3.90;3.47;;;16.00;99.90;;;;;;4918002;29;20217;-51
2021/07/11 01:10:21;;;;;;;3.67;3.38;;;16.00;99.90;;;;;;4918187;29;20218;-48
2021/07/11 01:12:51;;;;;;;3.80;3.50;;;16.00;99.90;;;;;;4917885;29;20217;-47
2021/07/11 01:15:20;;;;;;;3.45;3.10;;;16.10;99.90;;;;;;4917481;29;20307;-45
2021/07/11 01:17:48;;;;;;;3.60;3.30;;;16.10;99.90;;;;;;4917904;29;20587;-52
2021/07/11 01:20:33;;;;;;;3.78;3.15;;;16.10;99.90;;;;;;4917702;29;20221;-51
2021/07/11 01:23:05;;;;;;;3.78;2.92;;;16.10;99.90;;;;;;4917687;29;20213;-49
2021/07/11 01:25:36;;;;;;;3.25;2.40;;;16.00;99.90;;;;;;4917384;29;20752;-50
2021/07/11 01:28:07;;;;;;;3.95;3.05;;;16.00;99.90;;;;;;4917669;29;20303;-48
2021/07/11 01:30:35;;;;;;;3.95;3.00;;;16.00;99.90;;;;;;4917448;29;20740;-45
2021/07/11 01:33:06;;;;;;;2.53;2.30;;;16.00;99.90;;;;;;4916572;29;20628;-51
2021/07/11 01:35:35;;;;;;;3.50;3.17;;;16.00;99.90;;;;;;4917387;29;20216;-48
2021/07/11 01:38:05;;;;;;;3.10;2.90;;;16.00;99.90;;;;;;4917265;29;20668;-49
2021/07/11 01:40:34;;;;;;;3.42;3.13;;;16.00;99.90;;;;;;4917318;29;20212;-47
2021/07/11 01:43:03;;;;;;;3.25;2.38;;;15.90;99.90;;;;;;4917324;29;20259;-46
2021/07/11 01:45:31;;;;;;;4.53;2.67;;;15.90;99.90;;;;;;4917284;29;20217;-46
2021/07/11 01:47:59;;;;;;;2.35;2.15;;;15.90;99.90;;;;;;4917007;29;20331;-46
2021/07/11 01:50:28;;;;;;;2.67;2.47;;;15.90;99.90;;;;;;4917938;29;20241;-48
2021/07/11 01:52:57;;;;;;;2.67;2.15;;;15.80;99.90;;;;;;4917226;29;20213;-46
2021/07/11 01:55:26;;;;;;;3.13;2.80;;;15.80;99.90;;;;;;4917121;29;20247;-46
2021/07/11 01:57:55;;;;;;;2.20;2.00;;;15.80;99.90;;;;;;4916927;29;20307;-49
2021/07/11 02:00:24;;;;;;;2.85;2.38;;;15.80;99.90;;;;;;4917012;29;20343;-50
2021/07/11 02:02:52;;;;;;;1.88;1.77;;;15.80;99.90;;;;;;4916986;29;20682;-49
2021/07/11 02:05:20;;;;;;;4.72;2.35;;;15.70;99.90;;;;;;4916785;29;20681;-50
2021/07/11 02:07:48;;;;;;;1.83;1.63;;;15.70;99.90;;;;;;4917100;29;20307;-51
2021/07/11 02:10:18;;;;;;;2.17;1.60;;;15.70;99.90;;;;;;4916909;29;20219;-53
2021/07/11 02:12:50;;;;;;;2.00;1.90;;;15.70;99.90;;;;;;4916627;29;20213;-49
2021/07/11 02:15:19;;;;;;;2.20;2.00;;;15.60;99.90;;;;;;4916812;29;20232;-47
2021/07/11 02:17:53;;;;;;;2.05;1.88;;;15.60;99.90;;;;;;4916597;29;20216;-47
2021/07/11 02:20:21;;;;;;;2.50;1.92;;;15.50;99.90;;;;;;4916877;29;20237;-50
2021/07/11 02:22:49;;;;;;;1.70;1.60;;;15.50;99.90;;;;;;4916709;29;20251;-47
2021/07/11 02:25:20;;;;;;;2.70;1.70;;;15.50;99.90;;;;;;4916631;29;20213;-48
2021/07/11 02:27:50;;;;;;;1.88;1.50;;;15.50;99.90;;;;;;4916602;29;20296;-47
2021/07/11 02:30:27;;;;;;;1.60;1.50;;;15.40;99.90;;;;;;4916491;29;20299;-48
2021/07/11 02:32:56;;;;;;;2.08;1.55;;;15.40;99.90;;;;;;4916416;29;20301;-50
2021/07/11 02:35:30;;;;;;;1.92;1.65;;;15.40;99.90;;;;;;4916525;29;20292;-47
2021/07/11 02:38:01;;;;;;;1.70;1.60;;;15.40;99.90;;;;;;4916364;29;20218;-49
2021/07/11 02:40:33;;;;;;;2.38;1.30;;;15.40;99.90;;;;;;4916217;29;20232;-49
2021/07/11 02:43:02;;;;;;;1.88;1.52;;;15.30;99.90;;;;;;4916354;29;20213;-50
2021/07/11 02:45:33;;;;;;;1.63;1.52;;;15.30;99.90;;;;;;4916161;29;20216;-48
2021/07/11 02:48:03;;;;;;;2.08;1.52;;;15.30;99.90;;;;;;4916013;29;20354;-48
2021/07/11 02:50:33;;;;;;;1.85;1.75;;;15.30;99.90;;;;;;4916145;29;20389;-52
2021/07/11 02:53:03;;;;;;;2.05;1.52;;;15.20;99.90;;;;;;4916019;29;20788;-48
2021/07/11 02:55:35;;;;;;;1.27;1.10;;;15.20;99.90;;;;;;4916220;29;20569;-50
2021/07/11 02:58:06;;;;;;;2.60;1.33;;;15.20;99.90;;;;;;4916223;29;20212;-49
2021/07/11 03:00:36;;;;;;;2.63;1.25;;;15.20;99.90;;;;;;4916082;29;20236;-47
2021/07/11 03:03:05;;;;;;;1.58;1.20;;;15.20;99.90;;;;;;4915957;29;20217;-48
2021/07/11 03:05:33;;;;;;;1.75;1.65;;;15.20;99.90;;;;;;4915847;29;20217;-51
2021/07/11 03:08:02;;;;;;;1.50;1.40;;;15.20;99.90;;;;;;4915975;29;20216;-52
2021/07/11 03:10:30;;;;;;;1.60;1.50;;;15.20;99.90;;;;;;4916032;29;20242;-48
2021/07/11 03:13:01;;;;;;;1.65;1.50;;;15.10;99.90;;;;;;4915822;29;20217;-52
2021/07/11 03:15:31;;;;;;;2.03;1.50;;;15.20;99.90;;;;;;4915723;29;20316;-47
2021/07/11 03:18:01;;;;;;;1.73;1.60;;;15.20;99.90;;;;;;4915660;29;20300;-45
2021/07/11 03:20:30;;;;;;;2.00;1.15;;;15.20;99.90;;;;;;4915914;29;20331;-49
2021/07/11 03:22:58;;;;;;;2.00;1.38;;;15.20;99.90;;;;;;4915829;29;20218;-48
2021/07/11 03:25:27;;;;;;;1.85;1.30;;;15.20;99.90;;;;;;4915911;29;20229;-47
2021/07/11 03:27:56;;;;;;;2.03;1.70;;;15.20;99.90;;;;;;4915735;29;20248;-51
2021/07/11 03:30:35;;;;;;;1.63;1.10;;;15.20;99.90;;;;;;4915502;29;20213;-47
2021/07/11 03:33:07;;;;;;;3.13;1.42;;;15.30;99.90;;;;;;4915645;29;20208;-52
2021/07/11 03:35:40;;;;;;;1.38;1.27;;;15.30;99.90;;;;;;4915839;29;20213;-47
2021/07/11 03:38:11;;;;;;;1.30;1.20;;;15.30;99.90;;;;;;4915259;29;20228;-50
2021/07/11 03:40:44;;;;;;;1.30;1.20;;;15.30;99.90;;;;;;4915619;29;20796;-49
2021/07/11 03:43:14;;;;;;;1.30;1.20;;;15.30;99.90;;;;;;4915590;29;20729;-48
2021/07/11 03:45:43;;;;;;;1.52;1.33;;;15.30;99.90;;;;;;4915651;29;20307;-49
2021/07/11 03:48:16;;;;;;;1.70;1.50;;;15.30;99.90;;;;;;4915316;29;20681;-49
2021/07/11 03:50:50;;;;;;;1.70;1.60;;;15.30;99.90;;;;;;4915794;29;20204;-47
2021/07/11 03:53:21;;;;;;;1.70;1.23;;;15.30;99.90;;;;;;4915346;29;20260;-51
2021/07/11 03:55:50;;;;;;;2.15;1.10;;;15.30;99.90;;;;;;4915634;29;20252;-50
2021/07/11 03:58:20;;;;;;;1.63;1.50;;;15.30;99.90;;;;;;4919379;29;20260;-50
2021/07/11 04:00:52;;;;;;;1.52;1.42;;;15.30;99.90;;;;;;4918872;29;20235;-51
2021/07/11 04:03:24;;;;;;;1.90;1.23;;;15.30;99.90;;;;;;4918999;29;20252;-50
2021/07/11 04:05:53;;;;;;;1.60;1.50;;;15.30;99.90;;;;;;4918750;29;20232;-52
2021/07/11 04:08:22;;;;;;;1.67;1.52;;;15.30;99.90;;;;;;4919018;29;20300;-51
2021/07/11 04:10:50;;;;;;;1.50;1.30;;;15.30;99.90;;;;;;4918914;29;20691;-47
2021/07/11 04:13:18;;;;;;;1.58;1.48;;;15.30;99.90;;;;;;4918955;29;20241;-50
2021/07/11 04:15:52;;;;;;;1.50;1.40;;;15.30;99.90;;;;;;4918680;29;20615;-48
2021/07/11 04:18:24;;;;;;;1.65;1.42;;;15.30;99.90;;;;;;4918665;29;20217;-48
2021/07/11 04:20:55;;;;;;;4.70;1.50;;;15.30;99.90;;;;;;4918842;29;20232;-48
2021/07/11 04:23:25;;;;;;;3.65;1.30;;;15.30;99.90;;;;;;4918868;29;20216;-48
2021/07/11 04:25:55;;;;;;;2.15;2.03;;;15.30;99.90;;;;;;4918811;29;20213;-51
2021/07/11 04:28:24;;;;;;;1.92;1.73;;;15.30;99.90;;;;;;4918560;29;20307;-47
2021/07/11 04:30:53;;;;;;;3.08;1.30;;;15.30;99.90;;;;;;4918506;29;20800;-47
2021/07/11 04:33:23;;;;;;;1.75;1.60;;;15.40;99.90;;;;;;4918573;29;20236;-49
2021/07/11 04:35:51;;;;;;;2.30;1.20;;;15.40;99.90;;;;;;4918669;29;20299;-50
2021/07/11 04:38:18;;;;;;;1.58;1.48;;;15.40;99.90;;;;;;4918557;29;20219;-48
2021/07/11 04:40:46;;;;;;;1.80;1.70;;;15.40;99.90;;;;;;4918209;29;20332;-48
2021/07/11 04:43:16;;;;;;;3.00;1.70;;;15.40;99.90;;;;;;4918441;29;20303;-46
2021/07/11 04:45:46;;;;;;;2.53;1.55;;;15.40;99.90;;;;;;4918336;29;20220;-49
2021/07/11 04:48:14;;;;;;;2.55;1.10;;;15.40;99.90;;;;;;4918080;29;20282;-48
2021/07/11 04:50:44;;;;;;;1.20;1.10;;;15.50;99.90;;;;;;4918465;29;20406;-47
2021/07/11 04:53:14;;;;;;;1.45;1.13;;;15.50;99.90;;;;;;4918413;29;20613;-47
2021/07/11 04:55:43;;;;;;;2.53;1.52;;;15.50;99.90;;;;;;4918205;29;20304;-47
2021/07/11 04:58:11;;;;;;;1.40;1.30;;;15.50;99.90;;;;;;4918289;29;20223;-46
2021/07/11 05:00:41;;;;;;;2.10;1.20;;;15.50;99.90;;;;;;4918227;29;20621;-50
2021/07/11 05:03:09;;;;;;;1.20;1.05;;;15.50;99.90;;;;;;4918146;29;20615;-49
2021/07/11 05:05:37;;;;;;;2.47;1.27;;;15.50;99.90;;;;;;4918058;29;20307;-49
2021/07/11 05:08:07;;;;;;;1.20;1.10;;;15.50;99.90;;;;;;4917672;29;20681;-51
2021/07/11 05:10:35;;;;;;;1.30;1.20;;;15.60;99.90;;;;;;4917778;29;20231;-48
2021/07/11 05:13:03;;;;;;;1.38;1.00;;;15.60;99.90;;;;;;4917729;29;20696;-48
2021/07/11 05:15:30;;;;;;;2.50;1.33;;;15.60;99.90;;;;;;4918107;29;20220;-51
2021/07/11 05:17:58;;;;;;;1.15;1.08;;;15.60;99.90;;;;;;4917695;29;20221;-47
2021/07/11 05:20:26;;;;;;;1.10;0.98;;;15.70;99.90;;;;;;4917507;29;20311;-48
2021/07/11 05:22:54;;;;;;;1.15;1.05;;;15.70;99.90;;;;;;4917734;29;20307;-50
2021/07/11 05:25:24;;;;;;;3.33;1.20;;;15.80;99.90;;;;;;4917644;29;20201;-47
2021/07/11 05:27:52;;;;;;;3.60;1.25;;;15.80;99.90;;;;;;4917719;29;20227;-47
2021/07/11 05:30:20;;;;;;;1.83;1.23;;;15.80;99.90;;;;;;4917810;29;20259;-50
2021/07/11 05:32:48;;;;;;;1.77;1.55;;;15.80;99.90;;;;;;4917641;29;20263;-50
2021/07/11 05:35:16;;;;;;;2.25;1.15;;;15.70;99.90;;;;;;4917842;29;20316;-48
2021/07/11 05:37:44;;;;;;;5.25;1.42;;;15.70;99.90;;;;;;4917300;29;20225;-48
2021/07/11 05:40:15;;;;;;;1.20;1.02;;;15.70;99.90;;;;;;4917313;29;20229;-49
2021/07/11 05:42:45;;;;;;;1.17;1.00;;;15.70;99.90;;;;;;4917552;29;20295;-50
2021/07/11 05:45:14;;;;;;;1.65;1.33;;;15.70;99.90;;;;;;4917389;29;20236;-48
2021/07/11 05:47:42;;;;;;;2.45;1.20;;;15.70;99.90;;;;;;4917116;29;20343;-50
2021/07/11 05:50:11;;;;;;;1.13;1.10;;;15.70;99.90;;;;;;4916996;29;20677;-49
2021/07/11 05:52:38;;;;;;;3.38;1.25;;;15.70;99.90;;;;;;4917233;29;20205;-48
2021/07/11 05:55:08;;;;;;;1.10;1.00;;;15.70;99.90;;;;;;4917236;29;20216;-49
2021/07/11 05:57:36;;;;;;;1.30;0.98;;;15.70;99.90;;;;;;4917144;29;20695;-49
2021/07/11 06:00:07;;;;;;;1.30;1.20;;;15.70;99.90;;;;;;4917041;29;20312;-47
2021/07/11 06:02:34;;;;;;;3.67;1.30;;;15.70;99.90;;;;;;4916783;29;20324;-48
2021/07/11 06:05:03;;;;;;;1.25;1.10;;;15.70;99.90;;;;;;4917166;29;20216;-49
2021/07/11 06:07:31;;;;;;;2.28;1.17;;;15.70;99.90;;;;;;4916736;29;20209;-48
2021/07/11 06:09:59;;;;;;;0.95;0.93;;;15.70;99.90;;;;;;4916829;29;20215;-47
2021/07/11 06:12:27;;;;;;;1.55;1.13;;;15.70;99.90;;;;;;4916818;29;20264;-47
2021/07/11 06:14:55;;;;;;;1.38;0.90;;;15.80;99.90;;;;;;4916707;29;20642;-46
2021/07/11 06:17:26;;;;;;;0.88;0.88;;;15.80;99.90;;;;;;4916618;29;20220;-47
2021/07/11 06:19:54;;;;;;;1.75;1.27;;;15.80;99.90;;;;;;4916258;29;20299;-50
2021/07/11 06:22:22;;;;;;;1.73;1.27;;;15.80;99.90;;;;;;4916555;29;20237;-47
2021/07/11 06:24:50;;;;;;;3.72;1.48;;;15.80;99.90;;;;;;4916731;29;20252;-48
2021/07/11 06:27:18;;;;;;;1.60;1.50;;;15.80;99.90;;;;;;4916451;29;20254;-46
2021/07/11 06:29:46;;;;;;;4.25;1.50;;;15.90;99.90;;;;;;4916373;29;20236;-48
2021/07/11 06:32:13;;;;;;;2.15;1.20;;;15.90;99.90;;;;;;4916587;29;20219;-46
2021/07/11 06:34:43;;;;;;;1.95;1.30;;;15.90;99.90;;;;;;4916546;29;20296;-50
2021/07/11 06:37:11;;;;;;;1.27;1.17;;;15.90;99.90;;;;;;4916324;29;20319;-48
2021/07/11 06:39:38;;;;;;;1.40;1.30;;;16.00;99.90;;;;;;4916487;29;20231;-48
2021/07/11 06:42:06;;;;;;;1.67;1.58;;;16.00;99.90;;;;;;4916188;29;20268;-48
2021/07/11 06:44:34;;;;;;;1.65;1.50;;;16.00;99.90;;;;;;4916663;29;20219;-49
2021/07/11 06:47:04;;;;;;;1.45;1.33;;;16.10;99.90;;;;;;4916179;29;20219;-46
2021/07/11 06:49:32;;;;;;;1.88;1.77;;;16.10;99.90;;;;;;4915947;29;20208;-56
2021/07/11 06:52:01;;;;;;;1.45;1.35;;;16.20;99.90;;;;;;4916095;29;20226;-49
2021/07/11 06:54:29;;;;;;;1.40;1.30;;;16.30;99.90;;;;;;4915836;29;20308;-51
2021/07/11 06:56:57;;;;;;;1.85;1.75;;;16.30;99.90;;;;;;4916077;29;20736;-51
2021/07/11 06:59:25;;;;;;;1.40;1.30;;;16.30;99.90;;;;;;4916070;29;20231;-49
2021/07/11 07:01:53;;;;;;;1.70;1.60;;;16.40;99.90;;;;;;4915690;29;20327;-51
2021/07/11 07:04:21;;;;;;;1.40;1.30;;;16.40;99.90;;;;;;4915868;29;20212;-49
2021/07/11 07:06:49;;;;;;;1.52;1.40;;;16.40;99.90;;;;;;4915965;29;20687;-49
2021/07/11 07:09:18;;;;;;;1.80;1.23;;;16.50;99.90;;;;;;4915930;29;20224;-46
2021/07/11 07:11:46;;;;;;;1.60;1.50;;;16.50;99.90;;;;;;4917532;29;20303;-51
2021/07/11 07:14:14;;;;;;;1.67;1.58;;;16.50;99.90;;;;;;4915358;29;20778;-52
2021/07/11 07:16:42;;;;;;;2.20;1.70;;;16.60;99.90;;;;;;4915520;29;20698;-48
2021/07/11 07:19:10;;;;;;;1.40;1.30;;;16.60;99.90;;;;;;4915784;29;20302;-51
2021/07/11 07:21:38;;;;;;;2.28;2.08;;;16.70;99.90;;;;;;4915932;29;20243;-51
2021/07/11 07:24:06;;;;;;;2.10;1.90;;;16.70;99.90;;;;;;4915242;29;20696;-48
2021/07/11 07:26:35;;;;;;;1.67;1.58;;;16.80;99.90;;;;;;4915481;29;20767;-45
2021/07/11 07:29:03;;;;;;;1.40;1.30;;;16.90;99.90;;;;;;4915636;29;20699;-50
2021/07/11 07:31:31;;;;;;;2.42;1.75;;;17.00;99.90;;;;;;4918388;29;20255;-48
2021/07/11 07:33:59;;;;;;;2.17;1.98;;;17.00;99.90;;;;;;4919399;29;20665;-49
2021/07/11 07:36:27;;;;;;;1.73;1.60;;;17.10;99.90;;;;;;4919316;29;20216;-52
2021/07/11 07:38:55;;;;;;;1.70;1.60;;;17.10;99.90;;;;;;4919429;29;20326;-49
2021/07/11 07:41:23;;;;;;;3.25;1.73;;;17.10;99.90;;;;;;4919343;29;20693;-51
2021/07/11 07:43:53;;;;;;;2.78;1.85;;;17.10;99.90;;;;;;4919279;29;20720;-46
2021/07/11 07:46:21;;;;;;;1.63;1.52;;;17.10;99.90;;;;;;4919179;29;20295;-49
2021/07/11 07:48:49;;;;;;;2.20;1.75;;;17.10;99.90;;;;;;4919089;29;20787;-46
2021/07/11 07:51:17;;;;;;;2.78;1.80;;;17.10;99.90;;;;;;4919320;29;20315;-51
2021/07/11 07:53:45;;;;;;;1.75;1.60;;;17.10;99.90;;;;;;4918814;29;20248;-49
2021/07/11 07:56:13;;;;;;;2.85;2.00;;;17.10;99.90;;;;;;4919023;29;20240;-48
2021/07/11 07:58:41;;;;;;;1.90;1.70;;;17.20;99.90;;;;;;4918915;29;20303;-50
2021/07/11 08:01:10;;;;;;;2.58;2.17;;;17.20;99.90;;;;;;4918864;29;20676;-51
2021/07/11 08:03:38;;;;;;;2.78;2.13;;;17.30;99.90;;;;;;4918844;29;20239;-48
2021/07/11 08:06:06;;;;;;;2.80;2.00;;;17.30;99.90;;;;;;4918895;29;20598;-48
2021/07/11 08:08:34;;;;;;;2.65;2.03;;;17.40;99.90;;;;;;4918951;29;20215;-48
2021/07/11 08:11:02;;;;;;;3.75;2.38;;;17.40;99.90;;;;;;4918848;29;20212;-48
2021/07/11 08:13:30;;;;;;;2.15;1.88;;;17.50;99.90;;;;;;4918437;29;20320;-48
2021/07/11 08:15:58;;;;;;;5.05;2.40;;;17.60;99.90;;;;;;4918483;29;20673;-47
2021/07/11 08:18:27;;;;;;;3.15;2.20;;;17.70;99.90;;;;;;4918552;29;20272;-49
2021/07/11 08:20:55;;;;;;;5.03;2.28;;;17.80;99.90;;;;;;4918476;29;20216;-50
2021/07/11 08:23:23;;;;;;;3.08;2.78;;;17.90;99.90;;;;;;4917939;29;20272;-48
2021/07/11 08:25:52;;;;;;;2.50;1.85;;;18.10;99.90;;;;;;4918077;29;20607;-46
2021/07/11 08:28:19;;;;;;;2.72;2.50;;;18.20;99.90;;;;;;4918284;29;20213;-53
2021/07/11 08:30:47;;;;;;;2.03;1.85;;;18.30;99.90;;;;;;4918334;29;20223;-52
2021/07/11 08:33:15;;;;;;;2.42;1.92;;;18.40;99.90;;;;;;4918201;29;20219;-48
2021/07/11 08:35:44;;;;;;;1.85;1.73;;;18.50;99.90;;;;;;4918180;29;20224;-52
2021/07/11 08:38:12;;;;;;;2.50;2.30;;;18.50;99.90;;;;;;4918020;29;20223;-47
2021/07/11 08:40:40;;;;;;;3.35;2.70;;;18.70;99.90;;;;;;4917976;29;20213;-51
2021/07/11 08:43:09;;;;;;;2.90;2.58;;;18.80;99.90;;;;;;4917135;29;20228;-49
2021/07/11 08:45:40;;;;;;;2.60;2.15;;;19.00;99.90;;;;;;4917817;29;20208;-48
2021/07/11 08:48:08;;;;;;;5.22;3.05;;;19.10;99.90;;;;;;4918255;29;20335;-47
2021/07/11 08:50:36;;;;;;;3.20;2.90;;;19.20;99.90;;;;;;4918268;29;20304;-48
2021/07/11 08:53:05;;;;;;;3.33;3.00;;;19.20;99.90;;;;;;4917968;29;20693;-46
2021/07/11 08:55:33;;;;;;;3.63;2.30;;;19.30;99.90;;;;;;4917900;29;20304;-46
2021/07/11 08:58:02;;;;;;;2.38;2.03;;;19.40;99.90;;;;;;4917888;29;20244;-49
2021/07/11 09:00:32;;;;;;;3.20;2.22;;;19.40;99.90;;;;;;4917844;29;20300;-50
2021/07/11 09:03:01;;;;;;;2.45;2.25;;;19.50;99.90;;;;;;4917787;29;20292;-47
2021/07/11 09:05:30;;;;;;;2.33;2.13;;;19.70;99.90;;;;;;4917902;29;20223;-48
2021/07/11 09:08:00;;;;;;;2.47;1.88;;;19.90;99.90;;;;;;4917570;29;20335;-49
2021/07/11 09:10:32;;;;;;;1.90;1.80;;;20.10;99.90;;;;;;4917810;29;20217;-47
2021/07/11 09:13:00;;;;;;;2.33;1.70;;;20.50;99.90;;;;;;4917681;29;20240;-48
2021/07/11 09:15:33;;;;;;;1.75;1.65;;;20.70;99.90;;;;;;4917894;29;20309;-49
2021/07/11 09:18:02;;;;;;;2.65;2.17;;;20.80;99.90;;;;;;4917448;29;20307;-47
2021/07/11 09:20:31;;;;;;;2.20;2.00;;;21.00;99.90;;;;;;4917240;29;20219;-52
2021/07/11 09:23:01;;;;;;;2.97;1.75;;;21.40;99.90;;;;;;4917423;29;20239;-47
2021/07/11 09:25:31;;;;;;;2.88;1.88;;;21.60;99.90;;;;;;4917221;29;20213;-53
2021/07/11 09:28:09;;;;;;;3.00;1.70;;;21.70;99.90;;;;;;4917269;29;20747;-49
2021/07/11 09:30:38;;;;;;;1.60;1.50;;;21.70;99.90;;;;;;4917256;29;20212;-50
2021/07/11 09:33:16;;;;;;;1.92;1.80;;;21.80;99.90;;;;;;4917159;29;20239;-50
2021/07/11 09:35:44;;;;;;;3.60;1.90;;;22.00;99.90;;;;;;4917515;29;20307;-53
2021/07/11 09:38:12;;;;;;;2.92;2.13;;;21.90;99.90;;;;;;4917197;29;20839;-49
2021/07/11 09:40:41;;;;;;;3.17;1.80;;;22.00;99.90;;;;;;4917186;29;20303;-51
2021/07/11 09:43:13;;;;;;;1.88;1.77;;;22.20;99.90;;;;;;4916966;29;20323;-54
2021/07/11 09:45:42;;;;;;;4.30;3.08;;;22.20;99.90;;;;;;4916888;29;20312;-50
2021/07/11 09:48:11;;;;;;;4.40;1.80;;;22.30;99.90;;;;;;4917023;29;20755;-53
2021/07/11 09:50:40;;;;;;;2.78;2.08;;;22.40;99.90;;;;;;4917208;29;20223;-49
2021/07/11 09:53:11;;;;;;;1.67;1.58;;;22.30;99.90;;;;;;4916879;29;20213;-51
2021/07/11 09:55:38;;;;;;;3.30;3.00;;;22.30;99.90;;;;;;4916330;29;20759;-51
2021/07/11 09:58:11;;;;;;;2.30;2.00;;;22.30;99.90;;;;;;4917406;29;20212;-50
2021/07/11 10:00:40;;;;;;;2.08;1.88;;;22.40;99.90;;;;;;4917064;29;20209;-51
2021/07/11 10:03:11;;;;;;;1.83;1.67;;;22.40;99.90;;;;;;4917386;29;20659;-48
2021/07/11 10:05:40;;;;;;;2.00;1.83;;;22.40;99.90;;;;;;4917211;29;20216;-51
2021/07/11 10:08:08;;;;;;;2.72;1.90;;;22.30;99.90;;;;;;5052812;23;20330;-48
2021/07/11 10:10:39;;;;;;;2.35;2.13;;;22.30;99.90;;;;;;4935593;29;20676;-53
2021/07/11 10:13:09;;;;;;;3.05;2.00;;;22.30;99.90;;;;;;4935810;29;20246;-48
2021/07/11 10:15:39;;;;;;;2.35;2.13;;;22.30;99.90;;;;;;4935960;29;20208;-49
2021/07/11 10:18:09;;;;;;;2.90;2.53;;;22.20;99.90;;;;;;4935487;29;20679;-52
2021/07/11 10:20:39;;;;;;;2.25;2.05;;;22.20;99.90;;;;;;4935417;29;20250;-51
2021/07/11 10:23:09;;;;;;;3.03;2.63;;;22.20;99.90;;;;;;4935313;29;20232;-48
2021/07/11 10:25:39;;;;;;;2.53;2.33;;;22.40;99.90;;;;;;4935497;29;20208;-49
2021/07/11 10:28:11;;;;;;;2.20;2.00;;;22.80;99.90;;;;;;4935432;29;20216;-53
2021/07/11 10:30:42;;;;;;;2.58;1.88;;;23.00;99.90;;;;;;4935347;29;20247;-49
2021/07/11 10:33:12;;;;;;;2.17;2.00;;;22.90;99.90;;;;;;4935214;29;20295;-49
2021/07/11 10:35:51;;;;;;;2.60;1.90;;;22.70;99.90;;;;;;4935201;29;20212;-50
2021/07/11 10:38:36;;;;;;;1.95;1.85;;;22.70;99.90;;;;;;4934497;29;20588;-49
2021/07/11 10:41:15;;;;;;;1.80;1.50;;;22.90;99.90;;;;;;4935425;29;20211;-49
2021/07/11 10:43:47;;;;;;;2.88;1.67;;;23.10;99.90;;;;;;4934990;29;20367;-51
2021/07/11 10:46:15;;;;;;;2.08;1.92;;;23.30;99.30;;;;;;4935194;29;20216;-49
2021/07/11 10:48:43;;;;;;;2.90;2.22;;;23.50;99.20;;;;;;4935029;29;20212;-51
2021/07/11 10:51:19;;;;;;;2.42;1.95;;;23.70;98.90;;;;;;4934910;29;20315;-51
2021/07/11 10:53:47;;;;;;;1.80;1.70;;;24.10;97.90;;;;;;4934369;29;20299;-46
2021/07/11 10:56:20;;;;;;;1.90;1.80;;;24.30;97.70;;;;;;4934668;29;20303;-50
2021/07/11 10:58:50;;;;;;;2.55;1.92;;;24.00;97.30;;;;;;4934527;29;20213;-51
2021/07/11 11:01:22;;;;;;;3.22;1.70;;;23.60;97.90;;;;;;4934870;29;20233;-47
2021/07/11 11:03:52;;;;;;;2.42;2.10;;;23.20;98.40;;;;;;4934525;29;20251;-47
2021/07/11 11:06:21;;;;;;;2.65;1.85;;;22.80;98.90;;;;;;4934169;29;20220;-49
2021/07/11 11:08:49;;;;;;;4.47;2.92;;;22.60;99.40;;;;;;4934413;29;20630;-50
2021/07/11 11:11:17;;;;;;;2.22;2.00;;;22.40;99.90;;;;;;4934644;29;20230;-49
2021/07/11 11:13:45;;;;;;;3.45;2.08;;;22.20;99.90;;;;;;4934787;29;20275;-47
2021/07/11 11:16:20;;;;;;;2.72;1.90;;;22.00;99.90;;;;;;4934270;29;20263;-53
2021/07/11 11:18:54;;;;;;;2.70;2.50;;;21.90;99.90;;;;;;4934367;29;20583;-52
2021/07/11 11:21:25;;;;;;;2.33;2.13;;;21.80;99.90;;;;;;4934261;29;20612;-52
2021/07/11 11:23:55;;;;;;;3.25;2.22;;;21.70;99.90;;;;;;4934257;29;20238;-53
2021/07/11 11:26:25;;;;;;;3.38;2.53;;;21.70;99.90;;;;;;4934572;29;20230;-53
2021/07/11 11:28:56;;;;;;;2.97;2.13;;;21.70;99.90;;;;;;4934335;29;20545;-49
2021/07/11 11:31:27;;;;;;;2.33;1.83;;;21.60;99.90;;;;;;4934404;29;20235;-53
2021/07/11 11:33:58;;;;;;;3.20;2.40;;;21.50;99.90;;;;;;4934121;29;20208;-50
2021/07/11 11:36:30;;;;;;;3.42;2.17;;;21.60;99.90;;;;;;4934384;29;20212;-51
2021/07/11 11:39:03;;;;;;;2.33;1.95;;;21.80;99.90;;;;;;4934333;29;20865;-53
2021/07/11 11:41:31;;;;;;;3.65;2.33;;;22.10;99.90;;;;;;4933895;29;20236;-53
2021/07/11 11:44:07;;;;;;;2.50;2.30;;;22.40;99.90;;;;;;4933947;29;20749;-53
2021/07/11 11:46:36;;;;;;;4.50;2.70;;;22.80;99.90;;;;;;4934114;29;20219;-51
2021/07/11 11:49:06;;;;;;;5.75;2.60;;;23.20;99.90;;;;;;4934318;29;20210;-51
2021/07/11 11:51:36;;;;;;;3.25;2.30;;;23.50;99.90;;;;;;4934242;29;20302;-54
2021/07/11 11:54:04;;;;;;;3.80;2.47;;;23.80;99.90;;;;;;4933881;29;20672;-53
2021/07/11 11:56:32;;;;;;;2.35;1.80;;;24.00;99.90;;;;;;4933937;29;20379;-51
2021/07/11 11:59:04;;;;;;;2.22;1.90;;;24.30;99.70;;;;;;4933919;29;20248;-52
2021/07/11 12:01:34;;;;;;;2.75;2.42;;;24.60;98.90;;;;;;4934138;29;20222;-51
2021/07/11 12:04:13;;;;;;;2.67;1.83;;;24.60;98.60;;;;;;4934077;29;20267;-51
2021/07/11 12:06:43;;;;;;;2.13;1.90;;;24.50;98.00;;;;;;4933858;29;20211;-50
2021/07/11 12:09:11;;;;;;;2.50;1.50;;;24.30;98.10;;;;;;4933905;29;20584;-53
2021/07/11 12:11:39;;;;;;;2.08;1.80;;;24.00;98.20;;;;;;4933844;29;20589;-48
2021/07/11 12:14:09;;;;;;;2.67;1.98;;;23.50;99.00;;;;;;4934010;29;20570;-51
2021/07/11 12:16:38;;;;;;;2.42;2.22;;;22.80;99.90;;;;;;4933784;29;20208;-48
2021/07/11 12:19:08;;;;;;;2.80;2.58;;;22.10;99.90;;;;;;4936994;29;20220;-50
2021/07/11 12:21:44;;;;;;;6.07;3.10;;;21.40;99.90;;;;;;4937000;29;20235;-52
2021/07/11 12:24:14;;;;;;;2.42;1.95;;;20.60;99.90;;;;;;4936884;29;20236;-47
2021/07/11 12:26:44;;;;;;;3.15;2.15;;;19.70;99.90;;;;;;4936918;29;20298;-50
2021/07/11 12:29:14;;;;;;;5.78;4.32;;;18.90;99.90;;;;;;4936952;29;20212;-51
2021/07/11 12:31:42;;;;;;;2.70;2.42;;;18.50;99.90;;;;;;4936870;29;20739;-47
2021/07/11 12:34:15;;;;;;;3.58;2.42;;;18.20;99.90;;;;;;4937075;29;20403;-50
2021/07/11 12:36:54;;;;;;;3.92;2.50;;;18.10;99.90;;;;;;4937210;29;20250;-48
2021/07/11 12:39:33;;;;;;;3.90;2.75;;;18.10;99.90;;;;;;4937417;29;20627;-52
2021/07/11 12:42:01;;;;;;;4.85;3.03;;;18.20;99.90;;;;;;4937397;29;20254;-51
2021/07/11 12:44:34;;;;;;;3.63;3.28;;;18.30;99.90;;;;;;4937208;29;20234;-50
2021/07/11 12:47:07;;;;;;;2.88;2.40;;;18.40;99.90;;;;;;4936680;29;20215;-52
2021/07/11 12:49:35;;;;;;;2.05;1.88;;;18.50;99.90;;;;;;4937042;29;20335;-50
2021/07/11 12:52:12;;;;;;;2.65;1.52;;;18.60;99.90;;;;;;4937024;29;20242;-50
2021/07/11 12:54:40;;;;;;;2.97;2.53;;;18.80;99.90;;;;;;4936658;29;20223;-52
2021/07/11 12:57:08;;;;;;;2.38;2.10;;;19.00;99.90;;;;;;4937164;29;20307;-52
2021/07/11 12:59:39;;;;;;;2.88;1.75;;;19.30;99.90;;;;;;4937460;29;20216;-50